Time;durP1;ratioP1;P1;durP2;ratioP2;P2;SDS_P1;SDS_P2;PMS_P1;PMS_P2;Temp;Humidity;BMP_temperature;BMP_pressure;BME280_temperature;BME280_humidity;BME280_pressure;Samples;Min_cycle;Max_cycle;Signal;HPM_P1;HPM_P2
2020/12/08 00:01:53;;;;;;;53.73;29.07;;;1.70;99.90;;;7.73;92.28;100120.31;1773616;70;24443;-80
2020/12/08 00:04:09;;;;;;;58.83;29.60;;;1.80;99.90;;;7.97;91.92;100123.57;1769349;72;24906;-79
2020/12/08 00:06:26;;;;;;;52.26;28.71;;;1.90;99.90;;;8.13;92.07;100124.16;1766082;71;24431;-79
2020/12/08 00:08:42;;;;;;;50.87;28.12;;;2.00;99.90;;;8.21;91.87;100122.50;1776313;71;24477;-78
2020/12/08 00:10:59;;;;;;;49.48;28.43;;;2.10;99.90;;;8.26;91.38;100117.84;1770613;71;25015;-79
2020/12/08 00:13:15;;;;;;;45.70;26.97;;;2.20;99.90;;;8.23;91.52;100122.13;1769469;71;24430;-81
2020/12/08 00:15:31;;;;;;;48.29;27.92;;;2.30;99.90;;;8.19;92.07;100121.19;1778617;71;24898;-80
2020/12/08 00:17:48;;;;;;;51.01;28.16;;;2.40;99.90;;;8.16;91.53;100120.29;1764721;71;24411;-78
2020/12/08 00:20:07;;;;;;;48.01;27.74;;;2.50;99.90;;;8.28;92.54;100120.44;1775837;71;24529;-79
2020/12/08 00:22:23;;;;;;;45.34;26.76;;;2.50;99.90;;;8.51;92.50;100118.87;1769350;71;24472;-79
2020/12/08 00:24:39;;;;;;;45.54;27.04;;;2.60;99.90;;;8.52;91.03;100119.34;1764605;71;24451;-80
2020/12/08 00:26:55;;;;;;;43.80;26.44;;;2.70;99.90;;;8.35;90.76;100128.28;1765752;71;24495;-79
2020/12/08 00:29:12;;;;;;;44.09;26.02;;;2.70;99.90;;;8.41;91.29;100126.17;1776155;71;24534;-79
2020/12/08 00:31:29;;;;;;;42.43;25.59;;;2.80;99.90;;;8.32;91.84;100123.48;1765754;71;24439;-78
2020/12/08 00:33:47;;;;;;;39.66;24.32;;;2.70;99.90;;;8.17;92.11;100125.48;1762773;71;24455;-78
2020/12/08 00:36:03;;;;;;;39.01;23.44;;;2.70;99.90;;;8.14;91.44;100131.95;1775579;71;24415;-81
2020/12/08 00:38:20;;;;;;;32.59;22.30;;;2.70;99.90;;;8.21;92.33;100130.28;1766853;72;24468;-80
2020/12/08 00:40:38;;;;;;;34.02;22.43;;;2.60;99.90;;;8.13;92.25;100128.05;1776908;71;24430;-80
2020/12/08 00:42:54;;;;;;;36.94;22.63;;;2.50;99.90;;;8.08;92.29;100136.23;1765680;71;24561;-80
2020/12/08 00:45:11;;;;;;;35.40;22.61;;;2.40;99.90;;;8.01;92.41;100133.13;1773222;71;24632;-80
2020/12/08 00:47:29;;;;;;;34.85;21.90;;;2.40;99.90;;;7.93;92.53;100134.36;1769313;71;24374;-79
2020/12/08 00:49:45;;;;;;;39.69;23.73;;;2.30;99.90;;;7.84;92.42;100134.70;1776655;70;24442;-79
2020/12/08 00:52:03;;;;;;;38.92;23.79;;;2.30;99.90;;;7.91;92.88;100128.70;1770586;71;24504;-79
2020/12/08 00:54:21;;;;;;;40.78;24.97;;;2.20;99.90;;;7.98;92.92;100124.91;1768698;71;24362;-80
2020/12/08 00:56:37;;;;;;;41.90;24.40;;;2.30;99.90;;;7.99;93.02;100123.17;1775867;70;24891;-79
2020/12/08 00:58:53;;;;;;;44.95;24.72;;;2.30;99.90;;;8.13;93.11;100120.27;1773086;70;24464;-80
2020/12/08 01:01:10;;;;;;;41.53;24.35;;;2.40;99.90;;;8.19;92.33;100121.19;1767726;71;24487;-80
2020/12/08 01:03:26;;;;;;;41.64;24.56;;;2.40;99.90;;;8.32;93.13;100117.00;1767204;71;24428;-80
2020/12/08 01:05:43;;;;;;;40.29;23.83;;;2.50;99.90;;;8.31;91.66;100116.58;1784318;71;24472;-80
2020/12/08 01:08:00;;;;;;;37.22;23.05;;;2.50;99.90;;;8.40;91.82;100125.72;1777667;71;24425;-78
2020/12/08 01:10:17;;;;;;;36.40;23.18;;;2.60;99.90;;;8.40;91.70;100130.91;1761372;71;24440;-79
2020/12/08 01:12:38;;;;;;;39.40;23.48;;;2.60;99.90;;;8.26;91.13;100133.40;1775250;71;24406;-81
2020/12/08 01:14:54;;;;;;;35.11;22.79;;;2.60;99.90;;;8.20;92.39;100128.55;1768762;71;24403;-80
2020/12/08 01:17:11;;;;;;;35.27;22.64;;;2.60;99.90;;;8.18;92.42;100125.95;1767010;71;24503;-80
2020/12/08 01:19:29;;;;;;;35.80;23.33;;;2.60;99.90;;;8.24;92.94;100132.92;1774752;71;24417;-80
2020/12/08 01:21:45;;;;;;;38.26;24.22;;;2.60;99.90;;;8.24;91.78;100129.91;1737972;72;24476;-80
2020/12/08 01:24:02;;;;;;;33.20;21.71;;;2.70;99.90;;;8.40;92.44;100132.20;1744438;72;24493;-80
2020/12/08 01:26:24;;;;;;;37.76;23.37;;;2.70;99.90;;;8.15;90.53;100136.72;1772571;71;24420;-80
2020/12/08 01:28:42;;;;;;;34.49;22.28;;;2.80;99.90;;;8.25;90.64;100141.17;1769605;72;24497;-80
2020/12/08 01:30:58;;;;;;;33.35;22.27;;;2.80;99.90;;;8.28;90.20;100143.37;1761701;71;24847;-81
2020/12/08 01:33:15;;;;;;;35.84;22.90;;;2.80;99.90;;;8.28;90.50;100136.00;1768685;71;24961;-81
2020/12/08 01:35:32;;;;;;;34.37;22.47;;;2.90;99.90;;;8.21;90.24;100139.36;1770189;71;24484;-80
2020/12/08 01:37:50;;;;;;;31.28;21.96;;;2.90;99.90;;;8.34;91.28;100135.63;1771055;71;24435;-79
2020/12/08 01:40:07;;;;;;;32.31;22.41;;;2.80;99.90;;;8.39;91.82;100131.77;1776021;71;24481;-80
2020/12/08 01:42:23;;;;;;;31.78;21.66;;;2.80;99.90;;;8.19;92.04;100132.02;1776102;71;24441;-79
2020/12/08 01:44:41;;;;;;;33.37;22.35;;;2.70;99.90;;;7.96;91.74;100129.63;1775350;71;24475;-79
2020/12/08 01:46:59;;;;;;;30.25;22.33;;;2.50;99.90;;;7.82;92.28;100132.52;1782699;70;24482;-79
2020/12/08 01:49:16;;;;;;;31.62;21.75;;;2.40;99.90;;;7.64;91.20;100135.36;1787162;70;24497;-79
2020/12/08 01:51:33;;;;;;;32.80;22.35;;;2.30;99.90;;;7.61;91.89;100134.03;1763702;71;24907;-81
2020/12/08 01:53:53;;;;;;;30.97;22.16;;;2.20;99.90;;;7.58;91.85;100133.13;1779564;70;24429;-79
2020/12/08 01:56:13;;;;;;;30.94;21.95;;;2.10;99.90;;;7.44;91.78;100136.88;1768409;71;24375;-80
2020/12/08 01:58:29;;;;;;;33.01;23.17;;;2.00;99.90;;;7.45;92.19;100137.72;1770586;71;24411;-79
2020/12/08 02:00:46;;;;;;;35.07;22.24;;;1.90;99.90;;;7.43;92.21;100131.64;1764073;71;25002;-78
2020/12/08 02:03:03;;;;;;;32.38;22.48;;;1.80;99.90;;;7.32;92.17;100136.70;1771892;71;24499;-81
2020/12/08 02:05:20;;;;;;;35.24;23.77;;;1.80;99.90;;;7.33;92.37;100142.31;1782421;70;24833;-79
2020/12/08 02:07:43;;;;;;;41.95;24.86;;;1.70;99.90;;;7.29;92.66;100139.27;1766149;71;24479;-81
2020/12/08 02:09:59;;;;;;;39.50;25.24;;;1.70;99.90;;;7.32;92.87;100151.36;1768497;72;24492;-80
2020/12/08 02:12:17;;;;;;;42.03;27.01;;;1.70;99.90;;;7.37;93.21;100158.36;1768406;71;24514;-80
2020/12/08 02:14:33;;;;;;;45.40;27.57;;;1.70;99.90;;;7.47;93.64;100145.97;1773234;71;24414;-80
2020/12/08 02:16:50;;;;;;;45.29;27.33;;;1.70;99.90;;;7.49;93.52;100146.83;1771632;72;24503;-79
2020/12/08 02:19:07;;;;;;;47.63;26.40;;;1.70;99.90;;;7.41;93.82;100147.16;1769414;70;24450;-79
2020/12/08 02:21:31;;;;;;;43.66;26.20;;;1.70;99.90;;;7.35;93.93;100145.80;1773243;70;24848;-81
2020/12/08 02:23:53;;;;;;;40.18;25.10;;;1.70;99.90;;;7.29;93.81;100147.03;1775897;71;24947;-78
2020/12/08 02:26:11;;;;;;;44.40;25.78;;;1.60;99.90;;;7.23;93.80;100158.61;1769825;71;24375;-79
2020/12/08 02:28:29;;;;;;;39.90;25.22;;;1.50;99.90;;;7.21;93.74;100156.42;1770111;71;24863;-81
2020/12/08 02:30:46;;;;;;;42.61;26.15;;;1.50;99.90;;;7.22;93.82;100150.83;1775689;71;24541;-79
2020/12/08 02:33:03;;;;;;;42.32;25.64;;;1.40;99.90;;;7.16;93.71;100150.31;1771299;71;24431;-80
2020/12/08 02:35:20;;;;;;;45.06;25.87;;;1.40;99.90;;;7.16;93.96;100143.83;1780992;71;24981;-80
2020/12/08 02:37:38;;;;;;;40.38;24.05;;;1.30;99.90;;;7.04;93.55;100144.98;1742447;72;24496;-79
2020/12/08 02:39:54;;;;;;;40.64;24.07;;;1.30;99.90;;;6.98;93.63;100138.85;1774285;71;24459;-80
2020/12/08 02:42:15;;;;;;;45.42;25.41;;;1.20;99.90;;;6.94;93.68;100140.52;1774192;71;24530;-80
2020/12/08 02:44:30;;;;;;;47.39;25.90;;;1.20;99.90;;;6.92;93.68;100142.24;1780561;71;24932;-80
2020/12/08 02:46:52;;;;;;;47.35;26.60;;;1.10;99.90;;;7.01;93.87;100148.83;1774822;71;24429;-80
2020/12/08 02:49:09;;;;;;;42.81;25.34;;;1.10;99.90;;;6.96;93.82;100147.01;1776424;70;24458;-80
2020/12/08 02:51:26;;;;;;;44.11;25.47;;;1.10;99.90;;;6.91;93.64;100157.30;1760340;71;24456;-80
2020/12/08 02:53:44;;;;;;;46.08;26.80;;;1.10;99.90;;;6.84;93.09;100158.08;1772411;71;24433;-79
2020/12/08 02:56:03;;;;;;;48.80;27.95;;;1.10;99.90;;;6.88;92.54;100162.85;1777260;70;24465;-80
2020/12/08 02:58:20;;;;;;;51.21;27.33;;;1.10;99.90;;;6.90;91.36;100154.28;1770651;71;24406;-80
2020/12/08 03:00:38;;;;;;;48.18;27.50;;;1.20;99.90;;;6.95;91.16;100155.63;1776812;71;24481;-79
2020/12/08 03:03:01;;;;;;;50.12;26.93;;;1.20;99.90;;;6.89;90.49;100156.41;1771303;71;24402;-77
2020/12/08 03:05:18;;;;;;;44.92;25.69;;;1.30;99.90;;;6.92;90.23;100159.06;1772665;71;24491;-80
2020/12/08 03:07:35;;;;;;;43.05;24.14;;;1.30;99.90;;;6.79;89.50;100162.31;1771258;71;24440;-80
2020/12/08 03:09:52;;;;;;;38.90;24.41;;;1.30;99.90;;;6.68;88.81;100161.29;1774145;71;24533;-81
2020/12/08 03:12:09;;;;;;;36.65;22.54;;;1.30;99.90;;;6.59;88.52;100161.12;1763934;71;24442;-80
2020/12/08 03:14:26;;;;;;;37.85;23.59;;;1.30;99.90;;;6.48;88.06;100165.27;1776224;71;24970;-79
2020/12/08 03:16:43;;;;;;;33.16;21.35;;;1.30;99.90;;;6.50;88.98;100159.70;1774690;70;24436;-81
2020/12/08 03:19:00;;;;;;;38.98;23.30;;;1.20;99.90;;;6.37;88.29;100159.50;1774406;71;24851;-79
2020/12/08 03:21:17;;;;;;;35.46;23.10;;;1.20;99.90;;;6.40;88.77;100162.13;1772804;71;24479;-81
2020/12/08 03:23:34;;;;;;;38.72;23.18;;;1.10;99.90;;;6.43;89.08;100161.77;1774088;70;24855;-80
2020/12/08 03:25:50;;;;;;;37.01;23.58;;;1.10;99.90;;;6.46;89.67;100163.09;1769840;71;24446;-80
2020/12/08 03:28:07;;;;;;;37.56;22.79;;;1.10;99.90;;;6.37;89.41;100158.20;1772395;71;24955;-80
2020/12/08 03:30:24;;;;;;;36.91;22.43;;;1.00;99.90;;;6.32;89.56;100159.84;1773012;71;24885;-78
2020/12/08 03:32:40;;;;;;;36.25;22.37;;;1.00;99.90;;;6.29;90.00;100157.20;1773702;71;24939;-79
2020/12/08 03:34:58;;;;;;;35.70;21.64;;;0.90;99.90;;;6.27;90.92;100156.30;1768486;71;24366;-80
2020/12/08 03:37:14;;;;;;;38.09;22.83;;;0.90;99.90;;;6.25;91.62;100154.11;1772555;71;24425;-80
2020/12/08 03:39:30;;;;;;;40.03;22.44;;;0.80;99.90;;;6.27;92.21;100157.59;1770734;71;24498;-78
2020/12/08 03:41:47;;;;;;;39.90;23.52;;;0.80;99.90;;;6.27;92.48;100159.77;1773591;71;24427;-81
2020/12/08 03:44:04;;;;;;;42.15;22.90;;;0.70;99.90;;;6.28;92.63;100158.03;1779565;71;24441;-82
2020/12/08 03:46:21;;;;;;;43.36;24.03;;;0.60;99.90;;;6.25;92.14;100162.74;1774749;71;24502;-78
2020/12/08 03:48:38;;;;;;;43.57;23.61;;;0.60;99.90;;;6.30;92.04;100162.81;1770943;71;24450;-80
2020/12/08 03:50:58;;;;;;;35.72;22.27;;;0.60;99.90;;;6.27;92.25;100168.81;1771635;71;25043;-80
2020/12/08 03:53:15;;;;;;;40.00;23.23;;;0.60;99.90;;;6.25;92.00;100169.61;1771584;71;24867;-81
2020/12/08 03:55:33;;;;;;;45.64;24.36;;;0.60;99.90;;;6.26;92.40;100170.08;1763848;71;24373;-81
2020/12/08 03:57:49;;;;;;;42.96;24.39;;;0.60;99.90;;;6.29;92.51;100170.13;1772463;71;24580;-81
2020/12/08 04:00:10;;;;;;;46.32;25.38;;;0.50;99.90;;;6.34;92.84;100174.52;1769774;71;24863;-81
2020/12/08 04:02:32;;;;;;;46.20;24.42;;;0.50;99.90;;;6.26;92.47;100168.34;1764212;71;24903;-80
2020/12/08 04:04:50;;;;;;;41.49;22.94;;;0.50;99.90;;;6.30;92.72;100171.45;1762396;72;24484;-80
2020/12/08 04:07:07;;;;;;;44.76;22.81;;;0.50;99.90;;;6.29;92.34;100172.30;1790650;70;24460;-79
2020/12/08 04:09:25;;;;;;;44.79;23.06;;;0.50;99.90;;;6.27;92.68;100169.23;1781869;71;24437;-79
2020/12/08 04:11:42;;;;;;;43.58;23.45;;;0.50;99.90;;;6.24;92.73;100172.64;1769134;71;24749;-80
2020/12/08 04:14:00;;;;;;;44.43;23.70;;;0.50;99.90;;;6.28;92.47;100169.25;1764358;72;24623;-80
2020/12/08 04:16:18;;;;;;;42.87;23.40;;;0.50;99.90;;;6.29;92.49;100164.96;1767052;71;24554;-81
2020/12/08 04:18:35;;;;;;;45.81;24.19;;;0.50;99.90;;;6.25;92.40;100169.20;1770552;71;24414;-81
2020/12/08 04:20:52;;;;;;;44.39;23.50;;;0.60;99.90;;;6.27;91.66;100179.56;1774667;71;24452;-79
2020/12/08 04:23:23;;;;;;;48.18;25.12;;;0.60;99.90;;;6.32;91.92;100174.94;1777638;70;24446;-79
2020/12/08 04:25:42;;;;;;;46.55;23.61;;;0.70;99.90;;;6.37;91.87;100173.27;1767894;71;24871;-81
2020/12/08 04:28:11;;;;;;;42.38;23.59;;;0.70;99.90;;;6.40;92.08;100173.77;1768309;71;24851;-78
2020/12/08 04:30:39;;;;;;;42.70;22.70;;;0.70;99.90;;;6.44;92.55;100170.36;1766796;71;24428;-77
2020/12/08 04:33:04;;;;;;;43.63;24.48;;;0.70;99.90;;;6.46;92.13;100169.56;1772469;71;24436;-78
2020/12/08 04:35:57;;;;;;;48.70;25.93;;;0.80;99.90;;;6.63;92.39;100171.10;1782356;70;24418;-79
2020/12/08 04:38:24;;;;;;;47.20;25.11;;;0.80;99.90;;;6.67;92.64;100175.05;1727248;73;24504;-79
2020/12/08 04:41:07;;;;;;;50.45;26.75;;;0.90;99.90;;;6.77;92.80;100174.35;1777494;71;24518;-80
2020/12/08 04:44:02;;;;;;;49.80;24.99;;;1.00;99.90;;;6.81;91.74;100172.69;1736777;71;24494;-78
2020/12/08 04:46:51;;;;;;;49.39;24.92;;;1.10;99.90;;;6.91;92.11;100169.36;1767891;72;24435;-79
2020/12/08 04:49:16;;;;;;;51.64;26.53;;;1.10;99.90;;;6.99;92.48;100163.45;1784225;71;24493;-77
2020/12/08 05:05:17;;;;;;;43.86;24.39;;;1.20;99.90;;;6.95;92.06;100181.52;1748929;72;25277;-79
2020/12/08 05:07:34;;;;;;;49.34;26.72;;;0.80;99.90;;;6.68;93.12;100184.98;1709505;73;25738;-80
2020/12/08 05:09:53;;;;;;;50.57;27.90;;;0.80;99.90;;;6.65;93.18;100188.41;1704467;74;24485;-79
2020/12/08 05:12:20;;;;;;;49.55;28.47;;;0.80;99.90;;;6.67;93.33;100187.98;1710434;74;24540;-77
2020/12/08 05:18:15;;;;;;;59.43;32.37;;;0.80;99.90;;;7.07;93.51;100182.55;1780390;71;32894;-79
2020/12/08 05:20:34;;;;;;;56.48;31.55;;;1.00;99.90;;;7.02;93.99;100188.08;1760384;72;24493;-79
2020/12/08 05:23:09;;;;;;;58.76;32.55;;;1.10;99.90;;;7.13;93.96;100187.81;1723517;73;24494;-79
2020/12/08 05:25:26;;;;;;;58.39;32.58;;;1.20;99.90;;;7.08;93.69;100179.10;1726211;73;24482;-79
2020/12/08 05:27:48;;;;;;;54.24;32.10;;;1.20;99.90;;;7.16;93.78;100187.00;1710186;73;24912;-79
2020/12/08 05:30:09;;;;;;;56.77;31.79;;;1.30;99.90;;;7.22;93.25;100187.08;1730087;73;25506;-80
2020/12/08 05:32:29;;;;;;;61.06;33.30;;;1.30;99.90;;;7.28;93.31;100188.03;1728743;73;24496;-79
2020/12/08 05:34:52;;;;;;;58.99;33.98;;;1.40;99.90;;;7.23;92.57;100187.51;1730127;73;24460;-80
2020/12/08 05:37:12;;;;;;;57.79;32.45;;;1.50;99.90;;;7.29;92.47;100193.64;1734312;73;24475;-79
2020/12/08 05:39:28;;;;;;;59.86;33.28;;;1.60;99.90;;;7.34;93.12;100198.46;1728015;73;24908;-79
2020/12/08 05:41:48;;;;;;;54.27;31.92;;;1.60;99.90;;;7.40;93.27;100195.94;1732012;73;24456;-79
2020/12/08 05:44:09;;;;;;;54.80;32.94;;;1.70;99.90;;;7.43;92.84;100198.56;1735640;73;24483;-79
2020/12/08 05:46:29;;;;;;;54.30;32.05;;;1.70;99.90;;;7.44;93.29;100199.03;1737268;73;24426;-79
2020/12/08 05:48:45;;;;;;;50.90;31.23;;;1.80;99.90;;;7.50;93.27;100202.98;1733036;73;24423;-79
2020/12/08 05:51:04;;;;;;;49.40;30.94;;;1.90;99.90;;;7.51;93.20;100191.77;1731982;73;24464;-79
2020/12/08 05:53:20;;;;;;;48.72;30.11;;;1.90;99.90;;;7.29;91.29;100202.70;1728214;73;24494;-79
2020/12/08 05:55:38;;;;;;;47.78;30.64;;;1.90;99.90;;;7.53;91.74;100204.31;1740081;73;24420;-80
2020/12/08 05:58:23;;;;;;;52.27;30.86;;;2.00;99.90;;;7.59;91.53;100199.20;1729418;73;24464;-79
2020/12/08 06:00:43;;;;;;;46.29;28.93;;;2.00;99.90;;;7.67;92.51;100197.98;1730357;73;24526;-79
2020/12/08 06:03:14;;;;;;;48.38;29.75;;;2.00;99.90;;;7.65;92.27;100202.27;1729745;73;24719;-80
2020/12/08 06:05:37;;;;;;;46.54;29.17;;;2.10;99.90;;;7.68;93.09;100202.34;1730771;73;24451;-79
2020/12/08 06:08:04;;;;;;;51.69;29.66;;;2.10;99.90;;;7.69;93.26;100205.37;1728641;73;24453;-78
2020/12/08 06:10:44;;;;;;;;;;;;;;;;;;;;;
2020/12/08 06:13:03;;;;;;;48.05;28.78;;;2.10;99.90;;;7.66;93.21;100200.15;1717261;73;24517;-80
2020/12/08 06:15:26;;;;;;;49.64;29.62;;;2.10;99.90;;;7.76;93.49;100210.20;1731384;73;24440;-79
2020/12/08 06:17:50;;;;;;;44.72;29.42;;;2.10;99.90;;;7.69;92.44;100214.02;1728362;73;24439;-79
2020/12/08 06:20:17;;;;;;;44.67;29.71;;;2.10;99.90;;;7.78;93.15;100214.53;1724015;73;24442;-78
2020/12/08 06:22:39;;;;;;;51.01;30.80;;;2.20;99.90;;;7.83;93.52;100211.57;1695533;75;24517;-79
2020/12/08 06:24:58;;;;;;;47.45;31.14;;;2.20;99.90;;;7.70;93.42;100218.34;1728216;73;24539;-77
2020/12/08 06:27:30;;;;;;;49.73;30.88;;;2.20;99.90;;;7.76;93.46;100211.49;1721533;73;24365;-79
2020/12/08 06:30:10;;;;;;;49.24;31.15;;;2.20;99.90;;;7.73;92.46;100223.13;1687413;75;24449;-78
2020/12/08 06:32:35;;;;;;;48.52;30.27;;;2.20;99.90;;;7.88;93.39;100223.28;1698238;75;24915;-79
2020/12/08 06:41:17;;;;;;;43.74;29.50;;;2.20;99.90;;;8.17;92.11;100230.51;1742519;72;25246;-79
2020/12/08 06:43:52;;;;;;;42.16;28.17;;;2.20;99.90;;;7.83;91.96;100227.13;1715843;73;24549;-79
2020/12/08 06:50:42;;;;;;;47.15;31.20;;;2.20;99.90;;;7.91;91.27;100238.45;1786855;71;32350;-80
2020/12/08 06:53:04;;;;;;;48.21;29.80;;;2.40;99.90;;;7.69;91.27;100235.16;1753425;72;24872;-81
2020/12/08 06:55:28;;;;;;;46.06;29.51;;;2.30;99.90;;;7.67;90.81;100239.03;1723948;73;24520;-79
2020/12/08 06:57:50;;;;;;;44.70;29.96;;;2.30;99.90;;;7.82;91.68;100233.58;1749553;72;24975;-79
2020/12/08 07:00:14;;;;;;;44.48;29.27;;;2.30;99.90;;;7.93;91.28;100235.88;1747864;72;24843;-78
2020/12/08 07:02:48;;;;;;;42.48;28.72;;;2.40;99.90;;;7.97;91.62;100242.81;1713070;73;24518;-78
2020/12/08 07:05:07;;;;;;;45.82;28.70;;;2.40;99.90;;;8.04;91.37;100247.23;1747452;72;24900;-79
2020/12/08 07:07:29;;;;;;;42.09;28.28;;;2.40;99.90;;;7.98;91.99;100249.77;1752268;72;24424;-81
2020/12/08 07:09:50;;;;;;;45.17;28.83;;;2.40;99.90;;;8.13;91.86;100253.80;1751254;73;24943;-79
2020/12/08 07:12:08;;;;;;;40.77;29.34;;;2.40;99.90;;;8.17;92.64;100256.44;1747283;72;24416;-80
2020/12/08 07:14:37;;;;;;;44.27;29.79;;;2.40;99.90;;;8.24;92.27;100256.12;1715125;72;24846;-80
2020/12/08 07:16:57;;;;;;;44.26;29.39;;;2.40;99.90;;;8.16;92.58;100259.90;1716662;73;24439;-82
2020/12/08 07:19:21;;;;;;;41.66;28.48;;;2.40;99.90;;;8.16;92.37;100262.48;1736336;73;24442;-80
2020/12/08 07:21:48;;;;;;;40.79;28.09;;;2.50;99.90;;;8.23;92.80;100271.25;1741496;73;24837;-81
2020/12/08 07:24:07;;;;;;;44.01;27.95;;;2.50;99.90;;;8.18;91.33;100273.76;1746078;72;24439;-81
2020/12/08 07:26:38;;;;;;;42.46;28.70;;;2.50;99.90;;;8.07;91.70;100276.66;1749444;73;25109;-81
2020/12/08 07:29:08;;;;;;;44.73;28.77;;;2.50;99.90;;;8.04;92.63;100276.62;1757511;72;24522;-79
2020/12/08 07:31:30;;;;;;;42.23;28.30;;;2.50;99.90;;;8.07;92.36;100282.27;1749321;72;24568;-77
2020/12/08 07:33:58;;;;;;;40.07;27.15;;;2.50;99.90;;;8.04;91.56;100287.00;1750724;72;24439;-78
2020/12/08 07:36:32;;;;;;;40.24;28.06;;;2.50;99.90;;;7.99;91.75;100285.19;1755047;72;24568;-79
2020/12/08 07:38:52;;;;;;;40.60;26.78;;;2.50;99.90;;;8.14;92.21;100282.79;1748305;72;24467;-81
2020/12/08 07:41:19;;;;;;;41.92;27.92;;;2.50;99.90;;;7.96;90.88;100287.75;1759998;72;24394;-78
2020/12/08 07:43:35;;;;;;;39.00;26.90;;;2.50;99.90;;;8.04;92.61;100281.81;1751600;72;24413;-77
2020/12/08 07:45:51;;;;;;;43.31;27.40;;;2.50;99.90;;;8.02;92.59;100282.62;1749147;73;24510;-81
2020/12/08 07:48:10;;;;;;;41.18;27.70;;;2.50;99.90;;;8.07;91.96;100285.73;1755987;72;24943;-81
2020/12/08 07:50:29;;;;;;;42.93;27.62;;;2.50;99.90;;;8.15;92.33;100295.77;1750539;72;24453;-81
2020/12/08 07:52:57;;;;;;;40.38;27.30;;;2.50;99.90;;;8.05;92.31;100298.22;1748842;72;24483;-81
2020/12/08 07:55:15;;;;;;;40.21;26.54;;;2.50;99.90;;;8.07;92.10;100301.30;1751078;72;24447;-81
2020/12/08 07:57:31;;;;;;;39.96;26.83;;;2.60;99.90;;;8.16;92.59;100301.80;1749739;72;24507;-81
2020/12/08 07:59:49;;;;;;;39.79;27.60;;;2.60;99.90;;;7.89;90.63;100302.35;1756243;72;24516;-82
2020/12/08 08:02:07;;;;;;;45.00;28.31;;;2.60;99.90;;;8.03;91.98;100298.65;1750305;72;24882;-81
2020/12/08 08:04:24;;;;;;;41.95;28.72;;;2.60;99.90;;;8.14;92.60;100300.49;1753868;73;24441;-85
2020/12/08 08:06:40;;;;;;;41.61;27.41;;;2.60;99.90;;;8.10;92.28;100304.33;1757133;72;24421;-80
2020/12/08 08:08:59;;;;;;;41.40;28.01;;;2.60;99.90;;;8.07;91.71;100301.30;1754691;72;24544;-82
2020/12/08 08:11:17;;;;;;;41.02;28.02;;;2.60;99.90;;;8.17;92.23;100291.89;1747797;72;24462;-83
2020/12/08 08:13:40;;;;;;;40.55;26.95;;;2.60;99.90;;;8.11;91.68;100298.31;1745519;72;24439;-81
2020/12/08 08:15:58;;;;;;;37.94;27.54;;;2.60;99.90;;;7.99;91.04;100304.63;1752395;72;24423;-81
2020/12/08 08:18:14;;;;;;;42.28;28.06;;;2.60;99.90;;;8.12;92.46;100309.12;1753295;72;24405;-81
2020/12/08 08:20:30;;;;;;;38.61;26.92;;;2.60;99.90;;;8.32;91.96;100314.13;1743814;72;24453;-78
2020/12/08 08:22:48;;;;;;;43.55;28.85;;;2.70;99.90;;;8.23;92.33;100310.14;1751494;72;24476;-76
2020/12/08 08:25:07;;;;;;;40.77;28.17;;;2.70;99.90;;;8.31;92.67;100317.59;1748886;72;24399;-77
2020/12/08 08:27:24;;;;;;;40.95;27.32;;;2.70;99.90;;;8.15;91.48;100319.11;1746467;72;24437;-75
2020/12/08 08:29:40;;;;;;;41.88;27.50;;;2.70;99.90;;;8.17;92.89;100323.86;1753477;72;24458;-75
2020/12/08 08:31:57;;;;;;;39.01;26.94;;;2.70;99.90;;;8.21;91.93;100326.07;1749446;72;24431;-75
2020/12/08 08:34:13;;;;;;;37.88;27.75;;;2.70;99.90;;;8.22;91.88;100317.46;1753996;72;24479;-75
2020/12/08 08:36:30;;;;;;;40.79;28.55;;;2.80;99.90;;;8.16;92.61;100323.84;1754480;72;24526;-75
2020/12/08 08:38:46;;;;;;;41.00;27.75;;;2.80;99.90;;;8.20;92.63;100321.75;1756590;72;24530;-74
2020/12/08 08:41:02;;;;;;;39.55;26.92;;;2.80;99.90;;;8.11;91.56;100319.91;1750408;72;24863;-75
2020/12/08 08:43:19;;;;;;;41.96;27.90;;;2.70;99.90;;;8.15;92.03;100328.19;1746850;71;24482;-75
2020/12/08 08:45:35;;;;;;;41.09;27.91;;;2.80;99.90;;;8.12;92.71;100321.67;1745946;71;24634;-75
2020/12/08 08:47:51;;;;;;;41.77;27.12;;;2.80;99.90;;;8.18;92.03;100316.55;1754728;72;24557;-75
2020/12/08 08:50:10;;;;;;;39.91;26.53;;;2.80;99.90;;;8.18;91.13;100316.97;1747873;72;24996;-75
2020/12/08 08:52:26;;;;;;;39.34;27.34;;;2.80;99.90;;;8.25;92.11;100326.60;1752702;72;25043;-75
2020/12/08 08:54:45;;;;;;;37.23;27.18;;;2.80;99.90;;;8.30;91.87;100319.75;1751677;72;24563;-74
2020/12/08 08:57:08;;;;;;;41.50;27.91;;;2.80;99.90;;;8.44;92.03;100316.88;1748654;71;24463;-77
2020/12/08 08:59:24;;;;;;;41.28;28.54;;;2.90;99.90;;;8.47;92.71;100310.42;1732028;73;24441;-76
2020/12/08 09:01:42;;;;;;;42.71;28.19;;;2.90;99.90;;;8.56;92.51;100313.98;1721731;73;24841;-75
2020/12/08 09:03:58;;;;;;;40.82;28.40;;;2.90;99.90;;;8.50;92.61;100313.92;1748283;72;24509;-75
2020/12/08 09:06:15;;;;;;;40.02;27.49;;;3.00;99.90;;;8.51;92.49;100311.75;1752985;72;24528;-75
2020/12/08 09:08:33;;;;;;;41.83;27.02;;;3.00;99.90;;;8.46;91.98;100311.25;1753346;72;24521;-76
2020/12/08 09:10:49;;;;;;;36.50;26.89;;;3.10;99.90;;;8.48;91.68;100318.63;1719998;73;24429;-75
2020/12/08 09:13:05;;;;;;;40.12;28.15;;;3.10;99.90;;;8.42;91.69;100319.88;1745049;72;24893;-80
2020/12/08 09:15:22;;;;;;;39.71;28.51;;;3.10;99.90;;;8.55;92.30;100323.89;1751088;71;25109;-78
2020/12/08 09:17:40;;;;;;;38.85;28.26;;;3.10;99.90;;;8.57;91.64;100321.31;1749603;72;24525;-77
2020/12/08 09:19:58;;;;;;;40.48;27.98;;;3.10;99.90;;;8.58;92.20;100323.07;1727616;73;24494;-76
2020/12/08 09:22:14;;;;;;;41.97;28.24;;;3.10;99.90;;;8.65;92.49;100328.33;1738781;73;24520;-78
2020/12/08 09:24:32;;;;;;;37.22;26.95;;;3.20;99.90;;;8.73;92.55;100331.87;1719559;73;25035;-78
2020/12/08 09:26:53;;;;;;;40.10;28.47;;;3.20;99.90;;;8.74;91.83;100336.64;1745922;72;24942;-77
2020/12/08 09:29:08;;;;;;;40.77;28.17;;;3.30;99.90;;;8.83;93.04;100341.91;1744183;72;24495;-77
2020/12/08 09:31:24;;;;;;;39.90;28.63;;;3.30;99.90;;;8.77;92.02;100337.97;1747500;72;24473;-77
2020/12/08 09:33:41;;;;;;;40.15;29.39;;;3.40;99.90;;;8.81;92.41;100343.62;1744792;72;24493;-76
2020/12/08 09:36:01;;;;;;;40.51;28.48;;;3.40;99.90;;;8.85;93.36;100350.15;1744361;72;25015;-77
2020/12/08 09:38:16;;;;;;;43.54;29.18;;;3.50;99.90;;;8.85;91.53;100340.22;1743446;72;24799;-77
2020/12/08 09:40:33;;;;;;;38.40;28.69;;;3.50;99.90;;;8.94;92.24;100346.78;1743631;72;25719;-77
2020/12/08 09:42:48;;;;;;;43.18;29.58;;;3.60;99.90;;;9.12;92.66;100350.39;1743798;72;24507;-76
2020/12/08 09:45:06;;;;;;;42.58;30.52;;;3.60;99.90;;;9.16;93.19;100343.50;1744471;72;24588;-78
2020/12/08 09:47:22;;;;;;;40.14;29.02;;;3.70;99.90;;;9.26;92.26;100349.22;1745312;71;24876;-77
2020/12/08 09:49:41;;;;;;;42.71;30.31;;;3.70;99.90;;;9.33;92.97;100343.20;1750680;71;24558;-78
2020/12/08 09:52:01;;;;;;;40.08;29.50;;;3.70;99.90;;;9.18;91.47;100349.59;1744475;72;24484;-78
2020/12/08 09:54:19;;;;;;;39.69;29.48;;;3.80;99.90;;;9.21;92.16;100343.97;1749231;72;24493;-78
2020/12/08 09:56:35;;;;;;;41.28;29.91;;;3.80;99.90;;;9.21;93.34;100343.12;1747706;71;24476;-78
2020/12/08 09:58:53;;;;;;;37.59;27.49;;;3.90;99.90;;;9.06;92.89;100350.77;1742777;72;24499;-79
2020/12/08 10:01:09;;;;;;;39.32;29.01;;;3.90;99.90;;;8.96;91.58;100347.67;1744189;73;24497;-77
2020/12/08 10:03:26;;;;;;;40.75;29.58;;;3.90;99.90;;;9.12;91.96;100345.62;1745757;72;24586;-77
2020/12/08 10:05:45;;;;;;;38.59;28.89;;;4.00;99.90;;;9.16;92.78;100346.10;1748449;72;24442;-79
2020/12/08 10:08:01;;;;;;;44.10;29.94;;;4.00;99.90;;;9.31;92.54;100341.46;1745069;72;24496;-79
2020/12/08 10:10:22;;;;;;;37.87;27.87;;;4.20;99.90;;;9.21;91.44;100347.02;1745418;72;24483;-78